Portada
METAR-TAF:

METAR-TAF

Aeropuertos :

Aeropuerto de Baie-Comeau

Baie-Comeau, Quebec, Canadá

latitud: 49-08N, longitud: 068-12W, altitud: 21 m

Observación

El informe se hizo hace 20 minutos, a las 19:00 UTC
Viento 7 kt del este
Temperatura 22°C
Humedad 60%
Presión 1020 hPa
Visibilidad: 14.5 km
Cielo despejado

METAR: CYBC 211900Z AUTO 10007KT 9SM CLR 22/14 A3012 RMK SLP201 DENSITY ALT 600FT

Hora: 15:20 (19:20 UTC)

Pronóstico

El informe se hizo hace 5 horas y 42 minutos, a las 13:38 UTC
Pronóstico válido del 21 a las 14 UTC al 22 a las 02 UTC
Viento 5 kt del sureste
Visibilidad: 10 km
Cielo despejado
Evolucionando progresivamente
del 21 a las 21 UTC al 21 a las 23 UTC
Viento 7 kt del este-noreste

TAF: CYBC 211338Z 2114/2202 13005KT P6SM SKC BECMG 2121/2123 07007KT RMK FCST BASED ON AUTO OBS. NXT FCST BY 212000Z

Observaciones y pronósticos meteorológicos de más de 4000 aeropuertos (mensajes METAR y TAF).

Los puntos amarillos y rojos representan las estaciones disponibles.

Ponga el ratón en el punto deseado para ver el nombre de la estación.

Haga clic para ver las observaciones y los pronósticos meteorológicos.

Para cambiar el mapa : haga clic en los botones verdes con una cruz de color negro para hacer un zoom, en el botón verde con un guión para alejar o en las flechas verdes para mapas adyacentes.


METAR-TAF: